createdAt,value
2023-06-22T08:15:00.161Z,24.79
2023-06-22T08:17:28.205Z,24.88
2023-06-22T08:19:56.385Z,24.92
2023-06-22T08:22:23.731Z,24.99
2023-06-22T08:24:51.043Z,25.03
2023-06-22T08:27:18.838Z,25.07
2023-06-22T08:29:46.723Z,25.10
2023-06-22T08:32:14.182Z,25.16
2023-06-22T08:34:41.649Z,25.20
2023-06-22T08:37:12.575Z,25.26
2023-06-22T08:39:40.089Z,25.36
2023-06-22T08:42:08.168Z,25.32
2023-06-22T08:44:35.683Z,25.44
2023-06-22T08:47:03.488Z,25.55
2023-06-22T08:49:31.052Z,25.61
2023-06-22T08:51:58.585Z,25.70
2023-06-22T08:54:25.930Z,25.78
2023-06-22T08:56:53.517Z,25.89
2023-06-22T08:59:20.859Z,25.95
2023-06-22T09:01:48.107Z,26.08
2023-06-22T09:04:16.267Z,26.22
2023-06-22T09:06:44.197Z,26.28
2023-06-22T09:09:13.403Z,26.40
2023-06-22T09:11:40.837Z,26.48
2023-06-22T09:14:08.361Z,26.54
2023-06-22T09:16:36.024Z,26.60
2023-06-22T09:19:04.202Z,26.70
2023-06-22T09:21:33.875Z,26.78
2023-06-22T09:24:01.961Z,26.87
2023-06-22T09:26:29.386Z,26.93
2023-06-22T09:28:56.744Z,26.98
2023-06-22T09:31:24.270Z,27.08
2023-06-22T09:33:55.766Z,27.22
2023-06-22T09:36:23.379Z,27.28
2023-06-22T09:38:51.574Z,27.34
2023-06-22T09:41:19.048Z,27.43
2023-06-22T09:43:46.310Z,27.51
2023-06-22T09:46:13.689Z,27.50
2023-06-22T09:48:41.378Z,27.63
2023-06-22T09:51:09.116Z,27.73
2023-06-22T09:53:36.558Z,27.79
2023-06-22T09:56:04.393Z,27.86
2023-06-22T09:58:32.320Z,27.92
2023-06-22T10:01:03.616Z,27.96
2023-06-22T10:03:31.695Z,27.96
2023-06-22T10:05:59.192Z,28.00
2023-06-22T10:08:26.603Z,28.08
2023-06-22T10:10:54.243Z,28.14
2023-06-22T10:13:21.843Z,28.19
2023-06-22T10:15:49.416Z,28.28
2023-06-22T10:18:17.463Z,28.40
2023-06-22T10:20:51.834Z,28.43
2023-06-22T10:23:21.186Z,28.49
2023-06-22T10:25:49.065Z,28.50
2023-06-22T10:28:17.089Z,28.56
2023-06-22T10:30:45.010Z,28.60
2023-06-22T10:33:13.523Z,28.66
2023-06-22T10:35:40.912Z,28.75
2023-06-22T10:38:11.773Z,28.73
2023-06-22T10:40:39.617Z,28.77
2023-06-22T10:43:12.018Z,28.88
2023-06-22T10:45:40.844Z,28.96
2023-06-22T10:48:08.197Z,29.01
2023-06-22T10:50:36.724Z,29.06
2023-06-22T10:53:04.026Z,29.12
2023-06-22T10:55:43.471Z,29.12
2023-06-22T10:58:20.260Z,29.18
2023-06-22T11:00:47.822Z,29.27
2023-06-22T11:03:15.340Z,29.35
2023-06-22T11:05:42.865Z,29.44
2023-06-22T11:08:10.133Z,29.50
2023-06-22T11:10:37.585Z,29.60
2023-06-22T11:13:04.988Z,29.71
2023-06-22T11:15:32.622Z,29.83
2023-06-22T11:18:00.557Z,29.96
2023-06-22T11:20:28.234Z,30.10
2023-06-22T11:22:55.842Z,30.25
2023-06-22T11:25:23.218Z,30.38
2023-06-22T11:27:50.853Z,30.43
2023-06-22T11:30:18.415Z,30.48
2023-06-22T11:32:46.037Z,30.57
2023-06-22T11:35:13.955Z,30.70
2023-06-22T11:37:41.459Z,30.84
2023-06-22T11:40:10.838Z,31.03
2023-06-22T11:42:38.447Z,31.12
2023-06-22T11:45:07.846Z,31.13
2023-06-22T11:47:35.472Z,31.11
2023-06-22T11:50:03.717Z,31.03
2023-06-22T11:52:31.101Z,31.15
2023-06-22T11:54:58.414Z,31.26
2023-06-22T11:57:25.773Z,31.41
2023-06-22T11:59:53.089Z,31.38
2023-06-22T12:02:20.342Z,31.50
2023-06-22T12:04:47.765Z,31.58
2023-06-22T12:07:15.196Z,31.57
2023-06-22T12:09:42.523Z,31.68
2023-06-22T12:12:10.668Z,31.71
2023-06-22T12:14:38.027Z,31.62
2023-06-22T12:17:05.914Z,31.58
2023-06-22T12:19:33.505Z,31.65
2023-06-22T12:22:00.959Z,31.69
2023-06-22T12:24:28.317Z,31.78
2023-06-22T12:26:56.547Z,31.75
2023-06-22T12:29:23.975Z,31.78
2023-06-22T12:31:51.481Z,31.87
2023-06-22T12:34:18.966Z,31.92
2023-06-22T12:36:46.254Z,31.77
2023-06-22T12:39:13.590Z,31.78
2023-06-22T12:41:41.093Z,31.66
2023-06-22T12:44:08.497Z,31.59
2023-06-22T12:46:36.492Z,31.57
2023-06-22T12:49:03.806Z,31.53
2023-06-22T12:51:31.744Z,31.40
2023-06-22T12:53:59.102Z,31.27
2023-06-22T12:56:26.551Z,31.22
2023-06-22T12:58:54.401Z,31.18
2023-06-22T13:01:22.016Z,31.17
2023-06-22T13:03:49.627Z,31.28
2023-06-22T13:06:17.043Z,31.33
2023-06-22T13:09:19.104Z,31.35
2023-06-22T13:11:31.800Z,31.35
2023-06-22T13:13:59.217Z,31.46
2023-06-22T13:16:26.580Z,31.53
2023-06-22T13:18:54.191Z,31.69
2023-06-22T13:21:21.476Z,31.85
2023-06-22T13:23:48.888Z,32.01
2023-06-22T13:26:16.503Z,32.13
2023-06-22T13:28:44.017Z,32.05
2023-06-22T13:31:11.533Z,31.94
2023-06-22T13:33:39.709Z,31.94
2023-06-22T13:36:07.376Z,32.03
2023-06-22T13:38:37.232Z,31.88
2023-06-22T13:41:04.934Z,31.83
2023-06-22T13:43:32.744Z,31.88
2023-06-22T13:46:00.128Z,31.83
2023-06-22T13:48:27.524Z,31.88
2023-06-22T13:50:55.236Z,31.94
2023-06-22T13:53:22.795Z,31.93
2023-06-22T13:55:50.337Z,31.86
2023-06-22T13:58:17.862Z,31.70
2023-06-22T14:00:45.513Z,31.61
2023-06-22T14:03:17.199Z,31.68
2023-06-22T14:05:45.346Z,31.73
2023-06-22T14:08:40.627Z,31.62
2023-06-22T14:11:07.678Z,31.41
2023-06-22T14:13:35.599Z,31.44
2023-06-22T14:16:04.374Z,31.42
2023-06-22T14:18:31.793Z,31.38
2023-06-22T14:20:59.051Z,31.30
2023-06-22T14:23:28.540Z,31.38
2023-06-22T14:25:56.177Z,31.42
2023-06-22T14:28:25.462Z,31.49
2023-06-22T14:30:53.018Z,31.41
2023-06-22T14:33:23.466Z,31.20
2023-06-22T14:35:51.318Z,31.04
2023-06-22T14:38:23.128Z,30.95
2023-06-22T14:41:06.495Z,30.84
2023-06-22T14:43:37.821Z,30.74
2023-06-22T14:46:05.106Z,30.84
2023-06-22T14:48:32.433Z,31.01
2023-06-22T14:50:59.802Z,31.27
2023-06-22T14:53:27.278Z,31.52
2023-06-22T14:55:54.661Z,31.75
2023-06-22T14:58:22.674Z,31.88
2023-06-22T15:00:50.274Z,31.88
2023-06-22T15:03:17.856Z,32.00
2023-06-22T15:05:47.158Z,32.13
2023-06-22T15:08:14.722Z,32.37
2023-06-22T15:10:42.218Z,32.56
2023-06-22T15:13:09.857Z,32.77
2023-06-22T15:15:37.832Z,32.84
2023-06-22T15:18:05.492Z,32.74
2023-06-22T15:20:33.338Z,32.59
2023-06-22T15:23:00.984Z,32.48
2023-06-22T15:25:28.356Z,32.27
2023-06-22T15:27:55.600Z,32.09
2023-06-22T15:30:23.136Z,31.89
2023-06-22T15:32:50.743Z,32.00
2023-06-22T15:35:18.112Z,32.08
2023-06-22T15:37:46.543Z,32.09
2023-06-22T15:40:14.039Z,32.11
2023-06-22T15:42:41.532Z,32.16
2023-06-22T15:45:12.411Z,32.25
2023-06-22T15:47:39.834Z,32.27
2023-06-22T15:50:08.007Z,32.28
2023-06-22T15:52:35.325Z,32.18
2023-06-22T15:55:02.870Z,32.13
2023-06-22T15:57:31.838Z,32.08
2023-06-22T16:00:02.618Z,32.09
2023-06-22T16:02:30.021Z,32.01
2023-06-22T16:04:57.463Z,31.85
2023-06-22T16:07:24.813Z,31.79
2023-06-22T16:09:53.420Z,31.77
2023-06-22T16:12:20.756Z,31.74
2023-06-22T16:14:51.414Z,31.70
2023-06-22T16:17:18.829Z,31.56
2023-06-22T16:19:46.641Z,31.42
2023-06-22T16:22:14.154Z,31.38
2023-06-22T16:24:41.480Z,31.27
2023-06-22T16:27:08.771Z,31.10
2023-06-22T16:29:36.039Z,30.97
2023-06-22T16:32:03.843Z,30.76
2023-06-22T16:34:31.208Z,30.73
2023-06-22T16:36:58.981Z,30.77
2023-06-22T16:39:26.335Z,30.67
2023-06-22T16:41:53.998Z,30.66
2023-06-22T16:44:21.631Z,30.55
2023-06-22T16:46:49.078Z,30.41
2023-06-22T16:49:16.387Z,30.39
2023-06-22T16:51:44.414Z,30.30
2023-06-22T16:54:13.224Z,30.19
2023-06-22T16:56:40.899Z,30.19
2023-06-22T16:59:08.661Z,30.10
2023-06-22T17:01:36.560Z,30.03
2023-06-22T17:04:11.553Z,29.98
2023-06-22T17:06:43.909Z,29.88
2023-06-22T17:09:15.098Z,29.78
2023-06-22T17:11:43.904Z,29.55
2023-06-22T17:14:12.737Z,29.48
2023-06-22T17:16:46.151Z,29.42
2023-06-22T17:19:14.522Z,29.36
2023-06-22T17:21:42.745Z,29.22
2023-06-22T17:24:13.800Z,29.12
2023-06-22T17:26:41.460Z,29.04
2023-06-22T17:29:10.396Z,29.01
2023-06-22T17:31:42.226Z,28.86
2023-06-22T17:34:14.463Z,28.76
2023-06-22T17:36:52.840Z,28.74
2023-06-22T17:39:23.058Z,28.63
2023-06-22T17:41:51.985Z,28.59
2023-06-22T17:44:27.581Z,28.50
2023-06-22T17:46:59.994Z,28.50
2023-06-22T17:49:32.422Z,28.38
2023-06-22T17:52:02.160Z,28.37
2023-06-22T17:54:40.388Z,28.34
2023-06-22T17:57:16.930Z,28.31
2023-06-22T17:59:51.748Z,28.25
2023-06-22T18:02:26.029Z,28.19
2023-06-22T18:04:58.786Z,28.19
2023-06-22T18:07:30.292Z,28.11
2023-06-22T18:10:00.538Z,28.05
2023-06-22T18:12:29.321Z,28.02
2023-06-22T18:14:58.236Z,28.01
2023-06-22T18:17:27.013Z,27.87
2023-06-22T18:19:58.696Z,27.89
2023-06-22T18:22:26.782Z,27.84
2023-06-22T18:24:56.542Z,27.81
2023-06-22T18:27:26.549Z,27.80
2023-06-22T18:29:57.085Z,27.62
2023-06-22T18:32:24.709Z,27.63
2023-06-22T18:34:52.640Z,27.56
2023-06-22T18:37:21.482Z,27.48
2023-06-22T18:39:55.595Z,27.47
2023-06-22T18:42:23.022Z,27.37
2023-06-22T18:44:55.511Z,27.31
2023-06-22T18:47:31.861Z,27.19
2023-06-22T18:50:09.486Z,27.07
2023-06-22T18:52:38.090Z,27.06
2023-06-22T18:55:13.322Z,26.98
2023-06-22T18:57:40.833Z,26.94
2023-06-22T19:00:10.530Z,26.90
2023-06-22T19:02:59.613Z,26.84
2023-06-22T19:05:43.750Z,26.65
2023-06-22T19:08:12.074Z,26.75
2023-06-22T19:10:44.328Z,26.74
2023-06-22T19:13:17.612Z,26.70
2023-06-22T19:15:46.405Z,26.67
2023-06-22T19:18:26.481Z,26.68
2023-06-22T19:21:21.142Z,26.61
2023-06-22T19:23:48.794Z,26.49
2023-06-22T19:26:19.187Z,26.51
2023-06-22T19:28:55.629Z,26.43
2023-06-22T19:31:25.761Z,26.43
2023-06-22T19:34:05.135Z,26.45
2023-06-22T19:36:35.605Z,26.42
2023-06-22T19:39:05.144Z,26.42
2023-06-22T19:41:33.034Z,26.38
2023-06-22T19:44:01.039Z,26.34
2023-06-22T19:46:31.172Z,26.35
2023-06-22T19:48:59.682Z,26.32
2023-06-22T19:51:37.058Z,26.25
2023-06-22T19:54:11.347Z,26.23
2023-06-22T19:56:39.221Z,26.19
2023-06-22T19:59:13.914Z,26.15
2023-06-22T20:01:41.964Z,26.09
2023-06-22T20:04:11.001Z,26.04
2023-06-22T20:06:39.073Z,26.03
2023-06-22T20:09:07.656Z,26.02
2023-06-22T20:11:36.376Z,25.97
2023-06-22T20:14:04.282Z,25.89
2023-06-22T20:16:32.207Z,25.88
2023-06-22T20:19:12.929Z,25.85
2023-06-22T20:21:41.537Z,25.71
2023-06-22T20:24:12.281Z,25.73
2023-06-22T20:26:45.349Z,25.74
2023-06-22T20:29:30.924Z,25.75
2023-06-22T20:32:14.426Z,25.71
2023-06-22T20:34:47.377Z,25.70
2023-06-22T20:37:18.400Z,25.62
2023-06-22T20:39:48.653Z,25.59
2023-06-22T20:42:17.080Z,25.50
2023-06-22T20:44:44.367Z,25.53
2023-06-22T20:47:11.854Z,25.53
2023-06-22T20:49:39.225Z,25.43
2023-06-22T20:52:07.471Z,25.42
2023-06-22T20:54:35.659Z,25.37
2023-06-22T20:57:03.195Z,25.38
2023-06-22T20:59:30.967Z,25.35
2023-06-22T21:01:59.000Z,25.29
2023-06-22T21:04:26.558Z,25.32
2023-06-22T21:06:54.095Z,25.31
2023-06-22T21:09:21.418Z,25.31
2023-06-22T21:11:48.878Z,25.24
2023-06-22T21:14:19.996Z,25.22
2023-06-22T21:16:48.846Z,25.07
2023-06-22T21:19:16.467Z,24.97
2023-06-22T21:21:44.232Z,24.98
2023-06-22T21:24:15.090Z,24.97
2023-06-22T21:26:42.569Z,24.93
2023-06-22T21:29:10.131Z,24.91
2023-06-22T21:31:37.503Z,24.93
2023-06-22T21:34:04.786Z,24.89
2023-06-22T21:36:32.377Z,24.89
2023-06-22T21:38:59.665Z,24.79
2023-06-22T21:41:26.934Z,24.80
2023-06-22T21:43:54.256Z,24.82
2023-06-22T21:46:22.650Z,24.81
2023-06-22T21:48:50.050Z,24.78
2023-06-22T21:51:17.854Z,24.77
2023-06-22T21:53:45.207Z,24.77
2023-06-22T21:56:12.670Z,24.74
2023-06-22T21:58:40.236Z,24.69
2023-06-22T22:01:07.607Z,24.65
2023-06-22T22:03:35.081Z,24.64
2023-06-22T22:06:02.422Z,24.60
2023-06-22T22:08:29.838Z,24.59
2023-06-22T22:10:57.297Z,24.60
2023-06-22T22:13:24.778Z,24.58
2023-06-22T22:15:52.123Z,24.59
2023-06-22T22:18:19.711Z,24.59
2023-06-22T22:20:47.042Z,24.58
2023-06-22T22:23:14.467Z,24.56
2023-06-22T22:25:41.835Z,24.53
2023-06-22T22:28:09.190Z,24.50
2023-06-22T22:30:36.527Z,24.53
2023-06-22T22:33:04.090Z,24.50
2023-06-22T22:35:32.011Z,24.44
2023-06-22T22:37:59.783Z,24.36
2023-06-22T22:40:27.207Z,24.26
2023-06-22T22:42:54.513Z,24.28
2023-06-22T22:45:22.189Z,24.28
2023-06-22T22:47:49.724Z,24.27
2023-06-22T22:50:17.209Z,24.27
2023-06-22T22:52:44.524Z,24.30
2023-06-22T22:55:11.994Z,24.31
2023-06-22T22:57:39.495Z,24.30
2023-06-22T23:00:08.609Z,24.25
2023-06-22T23:02:36.684Z,24.27
2023-06-22T23:05:04.838Z,24.26
2023-06-22T23:07:32.305Z,24.25
2023-06-22T23:09:59.673Z,24.22
2023-06-22T23:12:28.186Z,24.21
2023-06-22T23:14:55.468Z,24.19
2023-06-22T23:17:22.988Z,24.18
2023-06-22T23:19:51.504Z,24.12
2023-06-22T23:22:18.906Z,24.15
2023-06-22T23:24:47.466Z,24.14
2023-06-22T23:27:14.916Z,24.10
2023-06-22T23:29:43.094Z,24.09
2023-06-22T23:32:10.713Z,24.06
2023-06-22T23:34:38.122Z,24.08
2023-06-22T23:37:05.851Z,24.05
2023-06-22T23:39:33.149Z,24.04
2023-06-22T23:42:00.526Z,24.04
2023-06-22T23:44:27.869Z,24.05
2023-06-22T23:46:55.206Z,24.04
2023-06-22T23:49:22.864Z,24.01
2023-06-22T23:51:50.129Z,23.98
2023-06-22T23:54:17.621Z,23.96
2023-06-22T23:56:44.926Z,23.95
2023-06-22T23:59:12.173Z,23.93
